createdAt,value
2018-04-12T00:01:41.190Z,13.06
2018-04-12T00:04:09.450Z,12.94
2018-04-12T00:06:38.487Z,12.87
2018-04-12T00:09:06.744Z,12.84
2018-04-12T00:11:35.003Z,12.48
2018-04-12T00:14:04.002Z,12.14
2018-04-12T00:16:33.017Z,11.77
2018-04-12T00:19:01.287Z,11.39
2018-04-12T00:21:29.539Z,11.17
2018-04-12T00:23:57.804Z,10.92
2018-04-12T00:26:26.059Z,10.67
2018-04-12T00:28:54.320Z,10.66
2018-04-12T00:31:22.573Z,10.61
2018-04-12T00:33:51.603Z,10.64
2018-04-12T00:36:19.867Z,10.50
2018-04-12T00:38:48.947Z,10.33
2018-04-12T00:41:17.156Z,10.28
2018-04-12T00:43:45.425Z,10.51
2018-04-12T00:46:14.439Z,10.73
2018-04-12T00:48:42.705Z,10.42
2018-04-12T00:51:10.955Z,10.49
2018-04-12T00:53:56.766Z,10.23
2018-04-12T00:56:25.033Z,10.31
2018-04-12T00:58:54.047Z,10.43
2018-04-12T01:01:22.307Z,10.25
2018-04-12T01:03:51.331Z,10.30
2018-04-12T01:06:19.583Z,10.04
2018-04-12T01:08:48.603Z,9.90
2018-04-12T01:14:15.365Z,9.97
2018-04-12T01:16:43.605Z,9.67
2018-04-12T01:19:12.623Z,9.55
2018-04-12T01:21:41.635Z,9.45
2018-04-12T01:24:11.700Z,9.71
2018-04-12T01:26:39.943Z,9.60
2018-04-12T01:29:08.203Z,9.77
2018-04-12T01:31:37.223Z,9.48
2018-04-12T01:34:05.480Z,9.39
2018-04-12T01:36:34.496Z,9.20
2018-04-12T01:39:02.761Z,9.10
2018-04-12T01:41:31.774Z,8.90
2018-04-12T01:44:00.122Z,8.76
2018-04-12T01:46:29.135Z,8.73
2018-04-12T01:48:58.149Z,8.76
2018-04-12T01:51:26.400Z,8.75
2018-04-12T01:53:55.413Z,8.60
2018-04-12T01:56:24.434Z,8.51
2018-04-12T01:58:52.684Z,8.50
2018-04-12T02:01:21.703Z,8.37
2018-04-12T02:03:49.959Z,8.35
2018-04-12T02:06:20.415Z,8.29
2018-04-12T02:08:48.658Z,8.11
2018-04-12T02:11:16.904Z,8.00
2018-04-12T02:13:45.172Z,8.20
2018-04-12T02:16:15.075Z,7.84
2018-04-12T02:18:43.313Z,7.76
2018-04-12T02:21:11.576Z,8.00
2018-04-12T02:23:39.818Z,7.91
2018-04-12T02:26:08.187Z,7.85
2018-04-12T02:28:36.434Z,7.59
2018-04-12T02:31:04.683Z,7.66
2018-04-12T02:33:32.936Z,7.46
2018-04-12T02:36:01.189Z,7.38
2018-04-12T02:38:30.194Z,7.45
2018-04-12T02:40:59.217Z,7.32
2018-04-12T02:43:27.470Z,7.45
2018-04-12T02:45:56.485Z,7.26
2018-04-12T02:48:24.735Z,7.19
2018-04-12T02:50:53.742Z,7.12
2018-04-12T02:53:22.750Z,7.05
2018-04-12T02:55:50.994Z,7.02
2018-04-12T02:58:20.018Z,7.22
2018-04-12T03:00:49.019Z,7.01
2018-04-12T03:03:18.039Z,6.81
2018-04-12T03:05:46.296Z,6.71
2018-04-12T03:08:15.312Z,6.71
2018-04-12T03:10:43.555Z,6.77
2018-04-12T03:13:11.818Z,6.89
2018-04-12T03:15:40.117Z,6.99
2018-04-12T03:18:08.365Z,7.09
2018-04-12T03:20:36.627Z,7.03
2018-04-12T03:23:04.878Z,7.01
2018-04-12T03:25:33.901Z,7.26
2018-04-12T03:28:02.154Z,7.18
2018-04-12T03:30:31.175Z,7.21
2018-04-12T03:32:59.435Z,7.21
2018-04-12T03:35:28.444Z,7.13
2018-04-12T03:37:56.707Z,7.13
2018-04-12T03:40:25.707Z,7.03
2018-04-12T03:42:54.736Z,6.92
2018-04-12T03:45:22.987Z,6.85
2018-04-12T03:47:52.004Z,6.62
2018-04-12T03:50:20.300Z,6.54
2018-04-12T03:52:49.270Z,6.49
2018-04-12T03:55:17.535Z,6.44
2018-04-12T03:57:46.545Z,6.44
2018-04-12T04:00:14.803Z,6.48
2018-04-12T04:02:45.043Z,6.40
2018-04-12T04:05:14.061Z,6.34
2018-04-12T04:07:42.297Z,6.29
2018-04-12T04:10:10.555Z,6.28
2018-04-12T04:12:38.802Z,6.03
2018-04-12T04:15:33.257Z,5.93
2018-04-12T04:18:19.816Z,5.95
2018-04-12T04:21:06.543Z,6.07
2018-04-12T04:23:35.553Z,5.96
2018-04-12T04:26:05.401Z,5.87
2018-04-12T04:28:33.637Z,5.92
2018-04-12T04:31:02.651Z,5.77
2018-04-12T04:33:31.666Z,5.72
2018-04-12T04:35:59.921Z,5.60
2018-04-12T04:38:28.943Z,5.60
2018-04-12T04:40:57.191Z,5.56
2018-04-12T04:43:26.207Z,5.58
2018-04-12T04:45:54.466Z,5.70
2018-04-12T04:48:22.715Z,5.72
2018-04-12T04:50:50.969Z,5.75
2018-04-12T04:53:19.212Z,5.84
2018-04-12T04:55:48.239Z,5.88
2018-04-12T04:58:16.478Z,5.98
2018-04-12T05:00:44.732Z,6.21
2018-04-12T05:03:12.976Z,6.42
2018-04-12T05:05:41.239Z,6.73
2018-04-12T05:08:10.247Z,6.94
2018-04-12T05:10:38.512Z,6.62
2018-04-12T05:13:07.514Z,6.58
2018-04-12T05:15:36.566Z,6.70
2018-04-12T05:18:04.787Z,6.74
2018-04-12T05:20:33.802Z,6.90
2018-04-12T05:23:02.060Z,6.90
2018-04-12T05:25:31.071Z,6.98
2018-04-12T05:28:00.096Z,6.92
2018-04-12T05:30:28.340Z,6.89
2018-04-12T05:32:57.355Z,6.95
2018-04-12T05:35:25.603Z,7.09
2018-04-12T05:37:53.866Z,7.55
2018-04-12T05:40:22.131Z,11.36
2018-04-12T05:42:50.387Z,15.35
2018-04-12T05:45:18.635Z,18.48
2018-04-12T05:47:47.664Z,19.91
2018-04-12T05:50:15.911Z,20.75
2018-04-12T05:52:44.935Z,21.37
2018-04-12T05:55:13.179Z,23.32
2018-04-12T05:57:41.437Z,23.84
2018-04-12T06:00:09.686Z,24.26
2018-04-12T06:02:38.574Z,24.83
2018-04-12T06:05:06.814Z,25.74
2018-04-12T06:07:35.083Z,26.14
2018-04-12T06:10:03.339Z,26.42
2018-04-12T06:12:31.649Z,26.78
2018-04-12T06:14:59.902Z,28.25
2018-04-12T06:17:28.167Z,29.37
2018-04-12T06:19:56.418Z,29.32
2018-04-12T06:22:25.447Z,30.72
2018-04-12T06:24:53.701Z,28.27
2018-04-12T06:27:21.973Z,28.66
2018-04-12T06:29:51.004Z,29.40
2018-04-12T06:32:19.264Z,30.74
2018-04-12T06:34:47.512Z,31.28
2018-04-12T06:37:15.779Z,32.88
2018-04-12T06:39:44.025Z,31.66
2018-04-12T06:42:12.280Z,33.80
2018-04-12T06:44:41.374Z,29.80
2018-04-12T06:47:10.391Z,27.01
2018-04-12T06:49:38.656Z,27.67
2018-04-12T06:52:07.670Z,30.20
2018-04-12T06:54:36.499Z,30.86
2018-04-12T06:57:04.762Z,32.13
2018-04-12T06:59:33.038Z,32.30
2018-04-12T07:02:01.390Z,33.87
2018-04-12T07:04:31.336Z,34.56
2018-04-12T07:06:59.599Z,35.36
2018-04-12T07:09:27.868Z,35.15
2018-04-12T07:11:57.038Z,35.89
2018-04-12T07:14:25.294Z,36.08
2018-04-12T07:16:53.555Z,35.78
2018-04-12T07:19:21.820Z,35.45
2018-04-12T07:21:50.090Z,35.84
2018-04-12T07:24:19.115Z,35.65
2018-04-12T07:26:47.367Z,35.04
2018-04-12T07:29:16.393Z,34.43
2018-04-12T07:31:44.644Z,31.32
2018-04-12T07:34:13.666Z,26.25
2018-04-12T07:36:42.213Z,24.37
2018-04-12T07:39:11.227Z,25.40
2018-04-12T07:41:40.246Z,28.99
2018-04-12T07:44:08.497Z,32.32
2018-04-12T07:46:37.523Z,34.41
2018-04-12T07:49:05.778Z,35.60
2018-04-12T07:51:34.818Z,35.81
2018-04-12T07:54:03.062Z,36.27
2018-04-12T07:56:32.095Z,35.73
2018-04-12T07:59:00.357Z,36.39
2018-04-12T08:01:28.619Z,35.72
2018-04-12T08:03:57.636Z,35.95
2018-04-12T08:06:26.216Z,36.39
2018-04-12T08:08:54.843Z,37.18
2018-04-12T08:11:23.106Z,37.04
2018-04-12T08:13:51.367Z,35.23
2018-04-12T08:16:19.679Z,36.15
2018-04-12T08:18:47.890Z,36.77
2018-04-12T08:21:16.155Z,37.00
2018-04-12T08:23:44.395Z,36.00
2018-04-12T08:26:12.657Z,36.16
2018-04-12T08:28:41.671Z,35.69
2018-04-12T08:31:09.931Z,35.23
2018-04-12T08:33:38.948Z,36.87
2018-04-12T08:36:07.203Z,36.49
2018-04-12T08:38:36.220Z,36.30
2018-04-12T08:41:04.480Z,33.39
2018-04-12T08:43:33.506Z,31.93
2018-04-12T08:46:01.759Z,30.88
2018-04-12T08:48:30.792Z,29.20
2018-04-12T08:50:59.051Z,27.86
2018-04-12T08:53:27.313Z,26.94
2018-04-12T08:55:56.328Z,26.12
2018-04-12T08:58:24.596Z,23.65
2018-04-12T09:00:53.602Z,23.20
2018-04-12T09:03:21.869Z,23.27
2018-04-12T09:05:50.878Z,23.52
2018-04-12T09:08:19.152Z,22.81
2018-04-12T09:10:48.166Z,21.89
2018-04-12T09:13:16.447Z,22.58
2018-04-12T09:15:44.695Z,23.10
2018-04-12T09:18:12.954Z,24.58
2018-04-12T09:20:41.223Z,26.37
2018-04-12T09:23:09.479Z,26.41
2018-04-12T09:25:37.745Z,26.71
2018-04-12T09:28:06.764Z,27.23
2018-04-12T09:30:35.019Z,27.68
2018-04-12T09:33:04.038Z,26.97
2018-04-12T09:35:32.295Z,27.18
2018-04-12T09:38:01.325Z,30.94
2018-04-12T09:40:29.924Z,29.57
2018-04-12T09:42:58.187Z,28.81
2018-04-12T09:45:26.437Z,27.61
2018-04-12T09:47:55.463Z,27.15
2018-04-12T09:50:23.723Z,28.11
2018-04-12T09:52:52.743Z,27.41
2018-04-12T09:55:21.854Z,24.38
2018-04-12T09:57:50.129Z,24.70
2018-04-12T10:00:23.752Z,23.57
2018-04-12T10:02:55.793Z,23.23
2018-04-12T10:05:30.006Z,25.02
2018-04-12T10:08:03.793Z,24.31
2018-04-12T10:10:32.052Z,24.34
2018-04-12T10:13:01.548Z,25.90
2018-04-12T10:15:29.810Z,23.70
2018-04-12T10:17:58.091Z,23.91
2018-04-12T10:20:26.344Z,23.89
2018-04-12T10:22:54.613Z,23.55
2018-04-12T10:25:22.871Z,22.45
2018-04-12T10:27:51.894Z,22.60
2018-04-12T10:30:20.159Z,23.17
2018-04-12T10:32:49.213Z,25.58
2018-04-12T10:35:17.453Z,24.86
2018-04-12T10:37:45.705Z,22.76
2018-04-12T10:40:14.735Z,23.13
2018-04-12T10:42:42.970Z,25.56
2018-04-12T10:45:11.236Z,25.40
2018-04-12T10:47:39.476Z,25.63
2018-04-12T10:50:07.735Z,25.92
2018-04-12T10:52:35.982Z,23.81
2018-04-12T10:55:04.257Z,23.59
2018-04-12T10:57:32.507Z,24.97
2018-04-12T11:00:00.767Z,26.16
2018-04-12T11:02:29.043Z,27.62
2018-04-12T11:04:59.409Z,26.61
2018-04-12T11:07:27.623Z,24.93
2018-04-12T11:09:55.878Z,23.71
2018-04-12T11:12:24.207Z,25.14
2018-04-12T11:14:52.477Z,27.38
2018-04-12T11:17:21.499Z,25.89
2018-04-12T11:19:49.767Z,25.83
2018-04-12T11:22:18.032Z,25.32
2018-04-12T11:24:47.078Z,25.29
2018-04-12T11:27:15.393Z,24.29
2018-04-12T11:29:43.652Z,23.42
2018-04-12T11:32:11.907Z,24.23
2018-04-12T11:34:40.176Z,24.32
2018-04-12T11:37:09.188Z,25.02
2018-04-12T11:39:37.444Z,24.86
2018-04-12T11:42:05.710Z,24.59
2018-04-12T11:44:35.974Z,25.20
2018-04-12T11:47:04.239Z,24.23
2018-04-12T11:49:32.482Z,25.35
2018-04-12T11:52:00.745Z,25.08
2018-04-12T11:54:28.989Z,24.12
2018-04-12T11:56:57.255Z,22.70
2018-04-12T11:59:25.516Z,24.20
2018-04-12T12:01:54.544Z,24.80
2018-04-12T12:04:22.785Z,24.26
2018-04-12T12:06:51.047Z,26.25
2018-04-12T12:09:19.291Z,27.60
2018-04-12T12:11:47.558Z,24.82
2018-04-12T12:14:16.579Z,24.19
2018-04-12T12:16:44.845Z,24.34
2018-04-12T12:19:13.092Z,25.98
2018-04-12T12:21:42.127Z,27.08
2018-04-12T12:24:10.379Z,25.75
2018-04-12T12:26:39.399Z,26.95
2018-04-12T12:29:07.780Z,24.62
2018-04-12T12:31:36.045Z,24.85
2018-04-12T12:34:05.060Z,23.32
2018-04-12T12:36:33.336Z,22.38
2018-04-12T12:39:01.607Z,21.82
2018-04-12T12:41:29.860Z,22.18
2018-04-12T12:43:58.157Z,23.34
2018-04-12T12:46:26.379Z,23.83
2018-04-12T12:48:54.637Z,23.67
2018-04-12T12:51:22.898Z,24.12
2018-04-12T12:53:51.923Z,23.74
2018-04-12T12:56:20.187Z,23.24
2018-04-12T12:58:48.447Z,23.08
2018-04-12T13:01:17.482Z,22.92
2018-04-12T13:03:45.761Z,22.32
2018-04-12T13:06:14.760Z,22.07
2018-04-12T13:08:43.023Z,22.29
2018-04-12T13:11:11.282Z,22.23
2018-04-12T13:13:39.547Z,22.58
2018-04-12T13:16:07.791Z,22.45
2018-04-12T13:18:36.039Z,22.95
2018-04-12T13:21:05.067Z,21.85
2018-04-12T13:23:33.322Z,21.73
2018-04-12T13:26:01.589Z,21.84
2018-04-12T13:28:30.606Z,22.08
2018-04-12T13:30:58.870Z,22.52
2018-04-12T13:33:27.887Z,22.02
2018-04-12T13:35:56.155Z,22.13
2018-04-12T13:38:25.171Z,21.88
2018-04-12T13:40:53.439Z,21.87
2018-04-12T13:43:21.698Z,21.90
2018-04-12T13:45:50.724Z,21.58
2018-04-12T13:48:18.984Z,21.24
2018-04-12T13:50:48.008Z,21.25
2018-04-12T13:53:16.263Z,21.58
2018-04-12T13:55:45.292Z,21.85
2018-04-12T13:58:13.539Z,21.91
2018-04-12T14:00:42.571Z,21.54
2018-04-12T14:03:10.824Z,21.27
2018-04-12T14:05:39.859Z,21.09
2018-04-12T14:08:08.115Z,21.67
2018-04-12T14:10:36.386Z,21.81
2018-04-12T14:13:05.407Z,21.89
2018-04-12T14:15:33.806Z,22.33
2018-04-12T14:18:02.062Z,22.68
2018-04-12T14:20:30.311Z,22.26
2018-04-12T14:22:59.336Z,22.29
2018-04-12T14:25:27.588Z,22.10
2018-04-12T14:27:56.615Z,21.95
2018-04-12T14:30:24.875Z,21.81
2018-04-12T14:32:53.905Z,21.73
2018-04-12T14:35:22.156Z,21.57
2018-04-12T14:37:51.186Z,21.82
2018-04-12T14:40:19.443Z,21.69
2018-04-12T14:42:47.707Z,21.20
2018-04-12T14:45:16.775Z,21.57
2018-04-12T14:47:45.027Z,21.68
2018-04-12T14:50:13.279Z,20.98
2018-04-12T14:52:42.416Z,21.23
2018-04-12T14:55:10.679Z,21.12
2018-04-12T14:57:40.242Z,20.82
2018-04-12T15:00:08.447Z,20.92
2018-04-12T15:02:36.851Z,20.87
2018-04-12T15:05:05.107Z,20.49
2018-04-12T15:07:34.121Z,20.71
2018-04-12T15:10:02.383Z,20.72
2018-04-12T15:12:31.402Z,20.60
2018-04-12T15:14:59.663Z,20.39
2018-04-12T15:17:27.919Z,20.39
2018-04-12T15:19:56.191Z,20.28
2018-04-12T15:22:24.443Z,20.32
2018-04-12T15:24:52.701Z,20.11
2018-04-12T15:27:20.962Z,19.95
2018-04-12T15:29:50.123Z,19.87
2018-04-12T15:32:18.379Z,19.91
2018-04-12T15:34:46.631Z,19.74
2018-04-12T15:37:14.901Z,19.62
2018-04-12T15:39:45.166Z,19.50
2018-04-12T15:42:13.418Z,19.42
2018-04-12T15:44:41.686Z,19.39
2018-04-12T15:47:10.708Z,19.18
2018-04-12T15:49:38.992Z,19.08
2018-04-12T15:52:07.240Z,18.92
2018-04-12T15:54:36.270Z,18.78
2018-04-12T15:57:04.531Z,18.72
2018-04-12T15:59:33.557Z,18.81
2018-04-12T16:02:01.819Z,18.74
2018-04-12T16:04:30.077Z,18.80
2018-04-12T16:06:59.113Z,18.80
2018-04-12T16:09:27.367Z,18.67
2018-04-12T16:11:56.383Z,18.63
2018-04-12T16:14:24.747Z,18.57
2018-04-12T16:16:53.775Z,18.43
2018-04-12T16:19:22.036Z,18.37
2018-04-12T16:21:50.300Z,18.28
2018-04-12T16:24:19.315Z,18.27
2018-04-12T16:26:47.579Z,18.18
2018-04-12T16:29:16.597Z,18.08
2018-04-12T16:31:44.859Z,18.10
2018-04-12T16:34:13.876Z,17.98
2018-04-12T16:36:42.138Z,18.01
2018-04-12T16:39:10.404Z,17.98
2018-04-12T16:41:38.661Z,17.91
2018-04-12T16:44:06.921Z,17.86
2018-04-12T16:46:35.179Z,17.87
2018-04-12T16:49:03.444Z,17.81
2018-04-12T16:51:32.476Z,17.84
2018-04-12T16:54:00.747Z,17.85
2018-04-12T16:56:29.032Z,17.80
2018-04-12T16:58:57.262Z,17.77
2018-04-12T17:01:26.289Z,17.70
2018-04-12T17:03:54.552Z,17.63
2018-04-12T17:06:23.584Z,17.55
2018-04-12T17:08:51.839Z,17.53
2018-04-12T17:11:20.109Z,17.48
2018-04-12T17:13:50.366Z,17.50
2018-04-12T17:16:18.624Z,17.40
2018-04-12T17:18:48.891Z,17.28
2018-04-12T17:21:17.242Z,17.19
2018-04-12T17:23:45.499Z,17.21
2018-04-12T17:26:14.523Z,17.16
2018-04-12T17:28:42.785Z,17.11
2018-04-12T17:31:11.815Z,17.04
2018-04-12T17:33:40.076Z,16.95
2018-04-12T17:36:08.340Z,16.86
2018-04-12T17:38:37.358Z,16.75
2018-04-12T17:41:05.610Z,16.72
2018-04-12T17:43:34.647Z,16.62
2018-04-12T17:46:02.920Z,16.44
2018-04-12T17:48:31.291Z,16.57
2018-04-12T17:51:00.303Z,16.47
2018-04-12T17:53:28.552Z,16.46
2018-04-12T17:55:57.570Z,16.28
2018-04-12T17:58:25.847Z,16.29
2018-04-12T18:00:54.100Z,16.22
2018-04-12T18:03:22.363Z,16.17
2018-04-12T18:05:50.609Z,16.17
2018-04-12T18:08:18.867Z,16.12
2018-04-12T18:10:47.881Z,15.88
2018-04-12T18:13:16.157Z,15.75
2018-04-12T18:15:44.415Z,15.56
2018-04-12T18:18:15.100Z,15.81
2018-04-12T18:20:43.355Z,15.81
2018-04-12T18:23:11.610Z,15.60
2018-04-12T18:25:40.644Z,15.38
2018-04-12T18:28:09.733Z,15.10
2018-04-12T18:30:38.020Z,14.91
2018-04-12T18:33:06.276Z,14.77
2018-04-12T18:35:35.303Z,14.60
2018-04-12T18:38:03.555Z,14.83
2018-04-12T18:40:31.972Z,14.92
2018-04-12T18:43:00.244Z,15.19
2018-04-12T18:45:28.500Z,15.21
2018-04-12T18:47:57.525Z,15.05
2018-04-12T18:50:25.793Z,14.97
2018-04-12T18:52:54.040Z,14.89
2018-04-12T18:55:22.310Z,14.90
2018-04-12T18:57:50.555Z,14.89
2018-04-12T19:00:18.811Z,14.91
2018-04-12T19:02:47.079Z,14.71
2018-04-12T19:05:16.105Z,14.34
2018-04-12T19:07:44.355Z,14.17
2018-04-12T19:10:13.387Z,13.97
2018-04-12T19:12:41.626Z,13.74
2018-04-12T19:15:10.654Z,13.58
2018-04-12T19:17:38.921Z,13.42
2018-04-12T19:20:07.191Z,13.57
2018-04-12T19:22:36.208Z,13.42
2018-04-12T19:25:04.487Z,13.35
2018-04-12T19:27:32.770Z,13.28
2018-04-12T19:30:01.004Z,13.23
2018-04-12T19:32:29.254Z,13.21
2018-04-12T19:34:57.504Z,13.23
2018-04-12T19:37:25.776Z,13.78
2018-04-12T19:39:54.791Z,13.46
2018-04-12T19:42:23.156Z,13.37
2018-04-12T19:44:52.183Z,13.27
2018-04-12T19:47:20.435Z,13.27
2018-04-12T19:49:48.700Z,13.02
2018-04-12T19:52:17.735Z,12.86
2018-04-12T19:54:45.994Z,12.76
2018-04-12T19:57:15.122Z,12.67
2018-04-12T19:59:43.372Z,12.60
2018-04-12T20:02:12.354Z,12.59
2018-04-12T20:04:41.383Z,12.97
2018-04-12T20:07:09.646Z,12.85
2018-04-12T20:09:38.663Z,12.88
2018-04-12T20:12:06.922Z,12.77
2018-04-12T20:14:35.943Z,12.58
2018-04-12T20:17:04.217Z,12.57
2018-04-12T20:19:32.483Z,12.32
2018-04-12T20:22:00.738Z,12.11
2018-04-12T20:24:28.984Z,12.00
2018-04-12T20:26:57.247Z,12.25
2018-04-12T20:29:25.509Z,11.91
2018-04-12T20:31:53.759Z,11.81
2018-04-12T20:34:22.019Z,11.78
2018-04-12T20:36:50.272Z,11.75
2018-04-12T20:39:18.539Z,11.74
2018-04-12T20:41:46.803Z,11.74
2018-04-12T20:44:15.826Z,11.92
2018-04-12T20:46:44.079Z,12.25
2018-04-12T20:49:13.107Z,12.16
2018-04-12T20:51:41.371Z,11.90
2018-04-12T20:54:09.640Z,11.86
2018-04-12T20:56:38.669Z,11.73
2018-04-12T20:59:06.937Z,11.62
2018-04-12T21:01:35.195Z,11.54
2018-04-12T21:04:04.224Z,11.40
2018-04-12T21:06:32.487Z,11.24
2018-04-12T21:09:00.739Z,11.18
2018-04-12T21:11:29.035Z,11.11
2018-04-12T21:13:57.360Z,11.11
2018-04-12T21:16:26.461Z,11.51
2018-04-12T21:18:54.706Z,11.26
2018-04-12T21:21:22.979Z,11.36
2018-04-12T21:23:51.995Z,11.18
2018-04-12T21:26:20.272Z,11.05
2018-04-12T21:28:49.268Z,10.94
2018-04-12T21:31:17.536Z,10.88
2018-04-12T21:33:45.803Z,10.82
2018-04-12T21:36:14.827Z,10.76
2018-04-12T21:38:43.079Z,10.73
2018-04-12T21:41:12.115Z,10.70
2018-04-12T21:43:40.368Z,10.76
2018-04-12T21:46:09.383Z,10.64
2018-04-12T21:48:37.633Z,10.60
2018-04-12T21:51:06.665Z,10.62
2018-04-12T21:53:34.931Z,10.62
2018-04-12T21:56:03.193Z,10.51
2018-04-12T21:58:32.211Z,10.44
2018-04-12T22:01:00.616Z,10.40
2018-04-12T22:03:28.870Z,10.28
2018-04-12T22:05:57.879Z,10.15
2018-04-12T22:08:26.147Z,10.07
2018-04-12T22:10:55.171Z,10.01
2018-04-12T22:13:23.494Z,9.98
2018-04-12T22:15:51.687Z,9.97
2018-04-12T22:18:19.935Z,9.97
2018-04-12T22:20:48.197Z,9.98
2018-04-12T22:23:16.446Z,9.99
2018-04-12T22:25:45.456Z,9.96
2018-04-12T22:28:13.715Z,9.93
2018-04-12T22:30:42.726Z,9.89
2018-04-12T22:33:11.732Z,9.83
2018-04-12T22:35:39.985Z,9.80
2018-04-12T22:38:09.013Z,9.79
2018-04-12T22:40:37.250Z,9.76
2018-04-12T22:43:05.505Z,9.72
2018-04-12T22:45:33.743Z,9.68
2018-04-12T22:48:01.995Z,9.69
2018-04-12T22:50:30.239Z,9.63
2018-04-12T22:52:58.493Z,9.53
2018-04-12T22:55:26.731Z,9.48
2018-04-12T22:57:54.983Z,9.42
2018-04-12T23:00:23.734Z,9.38
2018-04-12T23:02:51.991Z,9.33
2018-04-12T23:05:20.235Z,9.28
2018-04-12T23:07:48.481Z,9.24
2018-04-12T23:10:16.741Z,9.23
2018-04-12T23:12:45.752Z,9.21
2018-04-12T23:15:14.008Z,9.33
2018-04-12T23:17:42.250Z,9.44
2018-04-12T23:20:10.499Z,9.17
2018-04-12T23:22:38.742Z,9.30
2018-04-12T23:25:06.999Z,9.01
2018-04-12T23:27:35.234Z,8.89
2018-04-12T23:30:03.500Z,8.94
2018-04-12T23:32:32.521Z,8.89
2018-04-12T23:35:00.915Z,8.90
2018-04-12T23:37:29.150Z,8.61
2018-04-12T23:39:58.164Z,8.51
2018-04-12T23:42:27.059Z,8.38
2018-04-12T23:44:56.074Z,8.34
2018-04-12T23:47:24.319Z,8.27
2018-04-12T23:49:53.335Z,8.17
2018-04-12T23:52:22.344Z,8.10
2018-04-12T23:54:50.599Z,8.05
2018-04-12T23:57:19.607Z,8.20
2018-04-12T23:59:48.645Z,8.13
